Time;durP1;ratioP1;P1;durP2;ratioP2;P2;SDS_P1;SDS_P2;PMS_P1;PMS_P2;Temp;Humidity;BMP_temperature;BMP_pressure;BME280_temperature;BME280_humidity;BME280_pressure;Samples;Min_cycle;Max_cycle;Signal;HPM_P1;HPM_P2
2021/03/05 00:00:36;;;;;;;16.20;8.70;;;1.90;99.90;;;;;;5109479;27;20036;-65
2021/03/05 00:03:02;;;;;;;17.20;9.60;;;1.90;99.90;;;;;;5112470;27;20489;-66
2021/03/05 00:05:33;;;;;;;14.50;8.65;;;1.90;99.90;;;;;;5111217;27;20055;-65
2021/03/05 00:07:59;;;;;;;17.90;9.25;;;1.90;99.90;;;;;;5107459;27;20077;-65
2021/03/05 00:10:30;;;;;;;16.17;9.38;;;1.90;99.90;;;;;;5100615;27;20075;-65
2021/03/05 00:12:56;;;;;;;15.00;8.10;;;1.90;99.90;;;;;;5105023;27;20405;-65
2021/03/05 00:15:24;;;;;;;18.00;9.23;;;1.90;99.90;;;;;;5107456;27;20412;-65
2021/03/05 00:17:50;;;;;;;17.00;9.10;;;1.90;99.90;;;;;;5101216;28;20036;-65
2021/03/05 00:20:19;;;;;;;14.52;9.05;;;1.90;99.90;;;;;;5096518;28;20121;-65
2021/03/05 00:22:45;;;;;;;15.63;9.05;;;1.90;99.90;;;;;;5105367;28;20385;-65
2021/03/05 00:25:11;;;;;;;13.30;8.20;;;1.90;99.90;;;;;;5107143;27;20036;-65
2021/03/05 00:27:38;;;;;;;19.17;9.05;;;1.90;99.90;;;;;;5107771;27;20036;-65
2021/03/05 00:30:09;;;;;;;19.40;9.00;;;1.90;99.90;;;;;;5109506;27;20044;-65
2021/03/05 00:32:35;;;;;;;15.57;8.63;;;1.90;99.90;;;;;;5109038;28;20066;-65
2021/03/05 00:35:03;;;;;;;17.10;9.27;;;1.80;99.90;;;;;;5110639;28;20039;-65
2021/03/05 00:37:29;;;;;;;20.20;8.90;;;1.80;99.90;;;;;;5110619;28;20397;-65
2021/03/05 00:39:55;;;;;;;16.02;8.48;;;1.80;99.90;;;;;;5105223;28;20103;-65
2021/03/05 00:42:20;;;;;;;18.15;8.18;;;1.80;99.90;;;;;;5097638;28;20036;-65
2021/03/05 00:44:46;;;;;;;19.77;8.15;;;1.70;99.90;;;;;;5078657;28;20538;-65
2021/03/05 00:47:12;;;;;;;15.77;8.60;;;1.70;99.90;;;;;;5109315;28;20528;-65
2021/03/05 00:49:37;;;;;;;21.33;9.52;;;1.70;99.90;;;;;;5109943;28;20052;-65
2021/03/05 00:52:03;;;;;;;15.60;8.95;;;1.70;99.90;;;;;;5106326;27;20104;-65
2021/03/05 00:54:29;;;;;;;16.20;8.25;;;1.70;99.90;;;;;;5108349;27;20043;-65
2021/03/05 00:56:54;;;;;;;14.38;8.00;;;1.70;99.90;;;;;;5101468;28;20112;-65
2021/03/05 00:59:20;;;;;;;20.88;8.23;;;1.70;99.90;;;;;;5103880;27;20477;-65
2021/03/05 01:01:45;;;;;;;20.55;8.70;;;1.70;99.90;;;;;;5107209;28;20085;-66
2021/03/05 01:04:11;;;;;;;15.68;8.27;;;1.60;99.90;;;;;;5109318;28;20043;-65
2021/03/05 01:06:37;;;;;;;17.08;8.55;;;1.70;99.90;;;;;;5106131;28;20035;-65
2021/03/05 01:09:04;;;;;;;18.05;8.75;;;1.60;99.90;;;;;;5107573;27;20039;-65
2021/03/05 01:11:30;;;;;;;13.52;7.85;;;1.60;99.90;;;;;;5100151;27;20107;-65
2021/03/05 01:13:55;;;;;;;17.35;7.82;;;1.70;99.90;;;;;;5098337;28;20122;-65
2021/03/05 01:16:21;;;;;;;18.83;8.48;;;1.60;99.90;;;;;;5098041;28;20490;-66
2021/03/05 01:18:46;;;;;;;15.00;7.28;;;1.60;99.90;;;;;;5105021;28;20036;-65
2021/03/05 01:21:12;;;;;;;16.85;7.25;;;1.60;99.90;;;;;;5104980;28;20077;-65
2021/03/05 01:23:38;;;;;;;13.38;7.38;;;1.60;99.90;;;;;;5104563;28;20115;-65
2021/03/05 01:26:05;;;;;;;18.80;7.07;;;1.50;99.90;;;;;;5101703;27;20421;-65
2021/03/05 01:28:31;;;;;;;17.30;6.90;;;1.50;99.90;;;;;;5107657;28;20065;-65
2021/03/05 01:30:57;;;;;;;19.17;7.63;;;1.50;99.90;;;;;;5107665;28;20043;-65
2021/03/05 01:33:22;;;;;;;14.23;7.85;;;1.50;99.90;;;;;;5107295;28;20035;-65
2021/03/05 01:35:48;;;;;;;13.77;6.97;;;1.50;99.90;;;;;;5107951;28;20031;-65
2021/03/05 01:38:14;;;;;;;18.15;8.38;;;1.50;99.90;;;;;;5109383;28;20039;-65
2021/03/05 01:40:43;;;;;;;19.35;7.47;;;1.50;99.90;;;;;;5087002;28;20035;-65
2021/03/05 01:43:10;;;;;;;23.48;7.65;;;1.50;99.90;;;;;;5106552;28;20043;-65
2021/03/05 01:45:37;;;;;;;19.63;7.20;;;1.40;99.90;;;;;;5102803;28;20040;-65
2021/03/05 01:48:15;;;;;;;20.38;6.68;;;1.40;99.90;;;;;;5106310;28;20039;-65
2021/03/05 01:50:58;;;;;;;12.20;5.45;;;1.40;99.90;;;;;;5109489;28;20123;-65
2021/03/05 01:53:25;;;;;;;16.65;7.20;;;1.40;99.90;;;;;;5107834;28;20035;-65
2021/03/05 01:55:50;;;;;;;13.38;6.32;;;1.40;99.90;;;;;;5107146;28;20067;-65
2021/03/05 01:58:16;;;;;;;16.40;7.05;;;1.30;99.90;;;;;;5110608;28;20169;-65
2021/03/05 02:00:52;;;;;;;18.33;6.32;;;1.40;99.90;;;;;;5105912;28;21774;-65
2021/03/05 02:03:18;;;;;;;16.67;6.60;;;1.40;99.90;;;;;;5107194;28;20039;-65
2021/03/05 02:05:44;;;;;;;14.43;5.95;;;1.30;99.90;;;;;;5104845;28;20043;-65
2021/03/05 02:08:13;;;;;;;19.08;6.43;;;1.40;99.90;;;;;;5109510;28;20028;-65
2021/03/05 02:10:41;;;;;;;13.50;6.50;;;1.30;99.90;;;;;;5097781;28;20044;-65
2021/03/05 02:13:07;;;;;;;15.93;7.00;;;1.30;99.90;;;;;;5095662;28;20075;-65
2021/03/05 02:15:35;;;;;;;12.25;6.65;;;1.30;99.90;;;;;;5100804;27;20039;-65
2021/03/05 02:18:09;;;;;;;17.17;6.57;;;1.30;99.90;;;;;;5112224;27;20036;-65
2021/03/05 02:20:47;;;;;;;18.65;6.28;;;1.30;99.90;;;;;;5102839;28;20480;-65
2021/03/05 02:23:46;;;;;;;15.80;6.65;;;1.30;99.90;;;;;;5101827;28;20039;-65
2021/03/05 02:26:24;;;;;;;16.05;6.05;;;1.30;99.90;;;;;;5103349;27;20121;-65
2021/03/05 02:29:13;;;;;;;18.58;6.15;;;1.30;99.90;;;;;;5100468;28;20044;-65
2021/03/05 02:31:48;;;;;;;12.93;6.00;;;1.30;99.90;;;;;;5105870;28;20036;-65
2021/03/05 02:34:22;;;;;;;12.95;5.60;;;1.30;99.90;;;;;;5107209;28;20103;-65
2021/03/05 02:37:02;;;;;;;12.20;5.55;;;1.20;99.90;;;;;;5111344;28;20044;-65
2021/03/05 02:39:45;;;;;;;18.75;7.15;;;1.10;99.90;;;;;;5111640;28;20032;-65
2021/03/05 02:42:25;;;;;;;15.88;6.03;;;1.10;99.90;;;;;;5103457;27;20036;-65
2021/03/05 02:45:00;;;;;;;16.00;5.70;;;1.10;99.90;;;;;;5110850;27;20039;-66
2021/03/05 02:47:29;;;;;;;13.43;5.55;;;1.20;99.90;;;;;;5112006;28;20131;-65
2021/03/05 02:49:55;;;;;;;14.70;5.47;;;1.20;99.90;;;;;;5112470;28;20054;-65
2021/03/05 02:52:22;;;;;;;15.50;6.13;;;1.20;99.90;;;;;;5112016;28;21435;-65
2021/03/05 02:54:53;;;;;;;14.20;6.30;;;1.20;99.90;;;;;;5110950;27;20551;-65
2021/03/05 02:57:21;;;;;;;14.85;5.03;;;1.30;99.90;;;;;;5099770;27;20048;-65
2021/03/05 02:59:48;;;;;;;13.65;4.85;;;1.30;99.90;;;;;;5098528;28;20049;-66
2021/03/05 03:02:15;;;;;;;15.25;5.05;;;1.30;99.90;;;;;;5100874;27;20604;-65
2021/03/05 03:04:44;;;;;;;11.05;4.57;;;1.30;99.90;;;;;;5100174;28;20046;-65
2021/03/05 03:07:12;;;;;;;11.82;4.90;;;1.30;99.90;;;;;;5097034;27;20114;-65
2021/03/05 03:09:40;;;;;;;13.40;4.90;;;1.30;99.90;;;;;;5097694;27;20036;-65
2021/03/05 03:12:09;;;;;;;14.85;4.93;;;1.30;99.90;;;;;;5098393;27;20031;-65
2021/03/05 03:14:41;;;;;;;12.55;4.35;;;1.30;99.90;;;;;;5101245;27;20036;-65
2021/03/05 03:17:09;;;;;;;12.05;4.85;;;1.30;99.90;;;;;;5099906;28;20048;-65
2021/03/05 03:19:37;;;;;;;11.63;4.93;;;1.30;99.90;;;;;;5099334;28;20106;-65
2021/03/05 03:22:03;;;;;;;12.60;4.45;;;1.30;99.90;;;;;;5107245;27;20383;-65
2021/03/05 03:24:32;;;;;;;16.58;4.82;;;1.40;99.90;;;;;;5107832;28;20039;-65
2021/03/05 03:26:59;;;;;;;9.82;4.43;;;1.30;99.90;;;;;;5102419;27;20533;-65
2021/03/05 03:29:26;;;;;;;11.70;4.13;;;1.20;99.90;;;;;;5110178;28;20040;-65
2021/03/05 03:31:53;;;;;;;14.15;5.43;;;1.10;99.90;;;;;;5090103;28;20035;-65
2021/03/05 03:34:20;;;;;;;11.75;3.78;;;1.10;99.90;;;;;;5110154;28;20032;-65
2021/03/05 03:36:47;;;;;;;9.77;4.05;;;1.10;99.90;;;;;;5108621;28;20146;-65
2021/03/05 03:39:13;;;;;;;9.80;4.25;;;1.10;99.90;;;;;;5110023;28;20096;-65
2021/03/05 03:41:39;;;;;;;10.90;3.95;;;1.10;99.90;;;;;;5110832;27;20452;-65
2021/03/05 03:44:06;;;;;;;11.88;4.50;;;1.00;99.90;;;;;;5106812;27;20066;-65
2021/03/05 03:46:34;;;;;;;15.77;3.80;;;1.10;99.90;;;;;;5108976;28;20119;-65
2021/03/05 03:49:05;;;;;;;10.93;4.00;;;1.00;99.90;;;;;;5111314;28;20126;-65
2021/03/05 03:51:36;;;;;;;7.18;3.25;;;1.10;99.90;;;;;;5113947;27;20120;-65
2021/03/05 03:54:02;;;;;;;10.90;3.13;;;1.10;99.90;;;;;;5111049;28;20144;-65
2021/03/05 03:56:31;;;;;;;15.30;3.15;;;1.00;99.90;;;;;;5108795;28;20079;-65
2021/03/05 03:58:57;;;;;;;11.43;3.45;;;0.90;99.90;;;;;;5091251;28;20044;-65
2021/03/05 04:01:24;;;;;;;6.32;2.60;;;1.00;99.90;;;;;;5110166;28;20039;-65
2021/03/05 04:03:52;;;;;;;13.88;3.00;;;0.90;99.90;;;;;;5111325;27;20386;-65
2021/03/05 04:06:25;;;;;;;17.35;3.28;;;0.90;99.90;;;;;;5110360;28;20062;-65
2021/03/05 04:08:52;;;;;;;10.73;2.65;;;0.90;99.90;;;;;;5107278;27;20035;-65
2021/03/05 04:11:21;;;;;;;10.45;2.10;;;0.80;99.90;;;;;;5106880;27;20039;-65
2021/03/05 04:13:47;;;;;;;11.07;3.03;;;0.80;99.90;;;;;;5109463;27;20043;-65
2021/03/05 04:16:13;;;;;;;11.88;2.35;;;0.80;99.90;;;;;;5110413;28;20081;-65
2021/03/05 04:18:40;;;;;;;9.88;2.60;;;0.80;99.90;;;;;;5107541;27;20062;-65
2021/03/05 04:21:19;;;;;;;10.07;2.20;;;0.70;99.90;;;;;;5110493;27;20393;-65
2021/03/05 04:23:44;;;;;;;8.85;2.70;;;0.70;99.90;;;;;;5110799;28;20043;-65
2021/03/05 04:26:10;;;;;;;10.35;1.95;;;0.60;99.70;;;;;;5108596;28;20038;-65
2021/03/05 04:28:36;;;;;;;6.22;1.95;;;0.50;99.90;;;;;;5108839;27;20044;-65
2021/03/05 04:31:02;;;;;;;9.52;2.30;;;0.60;99.90;;;;;;5109477;28;20039;-65
2021/03/05 04:33:28;;;;;;;8.77;2.25;;;0.50;99.90;;;;;;5109231;27;20035;-65
2021/03/05 04:35:53;;;;;;;7.97;1.40;;;0.50;99.90;;;;;;5107963;28;20082;-65
2021/03/05 04:38:19;;;;;;;10.20;2.33;;;0.60;99.90;;;;;;5110243;27;20359;-65
2021/03/05 04:40:45;;;;;;;10.05;1.88;;;0.50;99.90;;;;;;5107576;28;20125;-65
2021/03/05 04:43:11;;;;;;;8.98;1.67;;;0.60;99.90;;;;;;5108212;27;21697;-65
2021/03/05 04:45:38;;;;;;;6.82;1.40;;;0.80;99.90;;;;;;5109038;28;20047;-65
2021/03/05 04:48:04;;;;;;;4.82;1.00;;;0.60;99.70;;;;;;5111426;28;20481;-65
2021/03/05 04:50:29;;;;;;;6.28;1.40;;;0.50;99.60;;;;;;5090350;28;20473;-65
2021/03/05 04:52:55;;;;;;;8.25;1.40;;;0.50;99.60;;;;;;5107752;27;20148;-65
2021/03/05 04:55:21;;;;;;;7.93;1.55;;;0.60;99.60;;;;;;5108619;27;20063;-65
2021/03/05 04:57:46;;;;;;;6.95;1.25;;;0.50;99.60;;;;;;5109011;28;20046;-65
2021/03/05 05:00:12;;;;;;;11.07;2.00;;;0.70;99.60;;;;;;5110118;28;20115;-65
2021/03/05 05:02:38;;;;;;;6.28;0.98;;;0.50;99.60;;;;;;5111082;27;20035;-65
2021/03/05 05:05:04;;;;;;;8.35;1.40;;;0.50;99.40;;;;;;5110145;28;20036;-65
2021/03/05 05:07:30;;;;;;;7.30;0.93;;;0.50;99.40;;;;;;5107347;28;20482;-65
2021/03/05 05:09:56;;;;;;;8.90;1.55;;;0.50;99.50;;;;;;5110047;28;20058;-65
2021/03/05 05:12:21;;;;;;;8.10;2.10;;;0.50;99.50;;;;;;5109024;27;20061;-65
2021/03/05 05:14:47;;;;;;;6.13;1.05;;;0.50;99.40;;;;;;5106936;28;20523;-65
2021/03/05 05:17:13;;;;;;;9.23;1.70;;;0.40;99.20;;;;;;5109370;27;20039;-65
2021/03/05 05:19:39;;;;;;;5.93;1.23;;;0.60;99.20;;;;;;5110160;28;20028;-65
2021/03/05 05:22:05;;;;;;;4.70;1.30;;;0.40;99.20;;;;;;5109703;27;20069;-65
2021/03/05 05:24:30;;;;;;;10.02;1.30;;;0.40;99.10;;;;;;5109401;28;20040;-65
2021/03/05 05:26:56;;;;;;;8.25;1.45;;;0.40;99.10;;;;;;5106365;28;20528;-65
2021/03/05 05:29:22;;;;;;;7.00;1.20;;;0.40;99.10;;;;;;5108183;28;20049;-65
2021/03/05 05:31:48;;;;;;;8.02;1.00;;;0.50;99.00;;;;;;5089405;28;20035;-65
2021/03/05 05:34:13;;;;;;;8.07;1.17;;;0.30;98.90;;;;;;5109076;28;20035;-65
2021/03/05 05:36:39;;;;;;;5.82;1.10;;;0.30;99.10;;;;;;5107832;28;20111;-65
2021/03/05 05:39:05;;;;;;;11.93;1.20;;;0.30;98.80;;;;;;5108138;28;20046;-65
2021/03/05 05:41:32;;;;;;;3.28;0.68;;;0.30;99.10;;;;;;5105453;28;20890;-65
2021/03/05 05:43:57;;;;;;;8.13;1.50;;;0.30;98.90;;;;;;5105273;28;20036;-65
2021/03/05 05:46:26;;;;;;;4.93;0.95;;;0.30;98.90;;;;;;5110630;28;20085;-65
2021/03/05 05:48:52;;;;;;;4.45;0.73;;;0.20;98.80;;;;;;5110104;28;20391;-65
2021/03/05 05:51:21;;;;;;;3.13;0.88;;;0.30;98.80;;;;;;5106711;28;20032;-65
2021/03/05 05:53:48;;;;;;;5.25;0.77;;;0.20;98.70;;;;;;5107423;27;20031;-65
2021/03/05 05:56:15;;;;;;;5.32;0.63;;;0.20;98.80;;;;;;5108555;28;20478;-65
2021/03/05 05:58:41;;;;;;;4.25;0.73;;;0.20;98.70;;;;;;5092112;28;20078;-65
2021/03/05 06:01:07;;;;;;;5.65;1.10;;;0.50;98.70;;;;;;5111040;27;20043;-65
2021/03/05 06:03:33;;;;;;;4.38;0.60;;;0.20;98.60;;;;;;5112641;28;20044;-65
2021/03/05 06:06:00;;;;;;;7.47;0.73;;;0.20;98.30;;;;;;5112328;28;20118;-65
2021/03/05 06:08:27;;;;;;;7.68;1.00;;;0.10;98.30;;;;;;5111709;28;20031;-65
2021/03/05 06:10:56;;;;;;;4.43;1.52;;;0.10;98.40;;;;;;5108180;28;20040;-65
2021/03/05 06:13:28;;;;;;;8.32;0.65;;;0.10;98.40;;;;;;5107212;27;20046;-64
2021/03/05 06:16:13;;;;;;;5.85;0.80;;;0.10;98.30;;;;;;5106812;27;20036;-65
2021/03/05 06:18:39;;;;;;;7.10;0.82;;;0.10;98.40;;;;;;5104021;27;20042;-65
2021/03/05 06:21:05;;;;;;;7.15;1.00;;;0.10;98.40;;;;;;5089667;28;20043;-65
2021/03/05 06:23:34;;;;;;;11.98;1.10;;;0.10;98.20;;;;;;5106370;28;20036;-65
2021/03/05 06:26:00;;;;;;;5.90;0.60;;;0.10;98.30;;;;;;5108591;28;20116;-65
2021/03/05 06:28:27;;;;;;;7.30;1.25;;;0.10;98.20;;;;;;5107277;28;20032;-65
2021/03/05 06:30:53;;;;;;;6.90;1.27;;;0.10;98.30;;;;;;5105598;27;20043;-65
2021/03/05 06:33:31;;;;;;;;;;;0.10;98.40;;;;;;5105051;28;20039;-65
2021/03/05 06:36:18;;;;;;;8.95;0.80;;;0.10;98.20;;;;;;5106597;27;19955;-65
2021/03/05 06:38:44;;;;;;;;;;;0.10;98.30;;;;;;5097340;27;20043;-65
2021/03/05 06:41:31;;;;;;;8.50;1.05;;;0.20;98.20;;;;;;5107204;28;20286;-65
2021/03/05 06:43:58;;;;;;;7.78;1.15;;;0.30;98.30;;;;;;5106564;28;20035;-65
2021/03/05 06:46:27;;;;;;;3.47;0.52;;;0.50;98.30;;;;;;5106180;27;20047;-65
2021/03/05 06:48:53;;;;;;;3.90;0.40;;;0.40;98.00;;;;;;5113851;28;20125;-65
2021/03/05 06:51:20;;;;;;;9.50;1.33;;;0.50;97.90;;;;;;5111298;27;20386;-65
2021/03/05 06:53:47;;;;;;;6.05;0.88;;;0.50;98.00;;;;;;5110869;28;20031;-65
2021/03/05 06:56:29;;;;;;;4.05;0.52;;;0.60;97.90;;;;;;5111482;27;20489;-65
2021/03/05 06:59:11;;;;;;;5.57;0.90;;;0.60;97.70;;;;;;5109580;27;20031;-65
2021/03/05 07:01:56;;;;;;;8.95;0.70;;;0.70;98.20;;;;;;5107939;27;20140;-65
2021/03/05 07:04:25;;;;;;;6.00;0.93;;;0.80;97.70;;;;;;5111122;28;20054;-65
2021/03/05 07:07:08;;;;;;;5.75;0.47;;;0.80;97.90;;;;;;5090970;28;20388;-65
2021/03/05 07:09:35;;;;;;;18.38;1.58;;;0.90;97.90;;;;;;5107563;28;20075;-65
2021/03/05 07:12:11;;;;;;;14.05;1.05;;;0.90;97.80;;;;;;5106654;27;20115;-65
2021/03/05 07:14:38;;;;;;;7.50;1.70;;;0.90;97.80;;;;;;5112339;28;20122;-65
2021/03/05 07:17:05;;;;;;;6.75;0.80;;;1.10;97.40;;;;;;5107314;27;20130;-65
2021/03/05 07:19:33;;;;;;;13.10;1.02;;;1.10;97.60;;;;;;5111657;27;20096;-65
2021/03/05 07:21:59;;;;;;;6.75;0.98;;;1.20;97.50;;;;;;5110963;28;20422;-65
2021/03/05 07:24:32;;;;;;;6.25;0.68;;;1.10;97.50;;;;;;5111025;27;20132;-65
2021/03/05 07:27:01;;;;;;;30.23;3.13;;;1.20;97.50;;;;;;5110977;28;20063;-65
2021/03/05 07:29:45;;;;;;;8.48;0.52;;;1.20;97.20;;;;;;5110357;28;20040;-65
2021/03/05 07:32:50;;;;;;;6.07;1.40;;;1.30;97.00;;;;;;5109956;28;20035;-65
2021/03/05 07:35:23;;;;;;;5.15;0.65;;;1.40;96.20;;;;;;5087626;28;20044;-65
2021/03/05 07:37:54;;;;;;;4.50;0.35;;;1.40;97.00;;;;;;5092846;28;20039;-65
2021/03/05 07:40:21;;;;;;;6.57;0.98;;;1.50;97.00;;;;;;5106744;28;20035;-65
2021/03/05 07:42:48;;;;;;;8.15;0.50;;;1.60;96.40;;;;;;5105876;27;20076;-65
2021/03/05 07:45:15;;;;;;;7.05;0.45;;;1.60;96.20;;;;;;5093254;27;20040;-65
2021/03/05 07:47:44;;;;;;;5.75;1.00;;;1.60;96.10;;;;;;5079307;27;20043;-65
2021/03/05 07:50:12;;;;;;;4.68;0.30;;;1.70;96.60;;;;;;5083245;27;20067;-65
2021/03/05 07:52:39;;;;;;;5.78;0.40;;;1.70;96.60;;;;;;5084388;27;22317;-65
2021/03/05 07:55:05;;;;;;;7.63;1.25;;;1.80;96.60;;;;;;5081837;27;20032;-65
2021/03/05 07:57:31;;;;;;;4.47;0.60;;;1.80;95.70;;;;;;5079189;27;20046;-65
2021/03/05 07:59:59;;;;;;;7.03;0.70;;;1.90;95.20;;;;;;5081753;27;20040;-65
2021/03/05 08:02:45;;;;;;;9.45;1.45;;;1.90;96.20;;;;;;5079115;27;20118;-65
2021/03/05 08:05:29;;;;;;;9.20;1.00;;;2.00;95.80;;;;;;5081039;27;20048;-65
2021/03/05 08:08:16;;;;;;;6.88;0.65;;;2.00;95.80;;;;;;5083186;27;20592;-65
2021/03/05 08:10:56;;;;;;;4.47;0.52;;;2.10;95.10;;;;;;5080100;27;20143;-65
2021/03/05 08:13:49;;;;;;;2.95;0.45;;;2.10;95.60;;;;;;5082360;27;20048;-65
2021/03/05 08:16:27;;;;;;;5.40;0.60;;;2.20;96.00;;;;;;5082678;27;20040;-65
2021/03/05 08:19:14;;;;;;;5.90;0.50;;;2.30;95.20;;;;;;5083078;27;20398;-65
2021/03/05 08:21:52;;;;;;;3.63;0.52;;;2.30;95.10;;;;;;5081311;27;20039;-65
2021/03/05 08:24:28;;;;;;;6.63;0.70;;;2.40;94.00;;;;;;5095644;27;20039;-65
2021/03/05 08:27:00;;;;;;;3.97;0.45;;;2.40;93.50;;;;;;5096215;27;20070;-65
2021/03/05 08:29:47;;;;;;;3.35;0.40;;;2.40;94.00;;;;;;5079266;27;20050;-65
2021/03/05 08:32:34;;;;;;;3.28;0.43;;;2.50;93.20;;;;;;5075971;27;20067;-65
2021/03/05 08:35:04;;;;;;;9.55;0.63;;;2.50;93.50;;;;;;5081134;27;20058;-65
2021/03/05 08:37:33;;;;;;;2.75;0.57;;;2.60;92.20;;;;;;5081378;27;20043;-65
2021/03/05 08:40:14;;;;;;;5.28;0.65;;;2.70;92.10;;;;;;5079313;27;20525;-66
2021/03/05 08:42:49;;;;;;;4.70;0.60;;;2.80;90.70;;;;;;5078072;27;20031;-65
2021/03/05 08:45:27;;;;;;;4.05;0.57;;;2.80;93.10;;;;;;5081542;27;20061;-65
2021/03/05 08:47:54;;;;;;;4.45;0.50;;;2.80;92.30;;;;;;5080624;27;20036;-65
2021/03/05 08:50:22;;;;;;;4.47;0.50;;;3.00;88.10;;;;;;5080848;27;20381;-65
2021/03/05 08:52:49;;;;;;;5.30;0.45;;;3.10;89.30;;;;;;5083676;27;20583;-65
2021/03/05 08:55:16;;;;;;;5.60;1.50;;;3.10;90.00;;;;;;5082955;27;20134;-65
2021/03/05 08:57:49;;;;;;;4.75;0.60;;;3.20;85.80;;;;;;5082718;27;20072;-65
2021/03/05 09:00:17;;;;;;;4.60;0.63;;;3.50;85.40;;;;;;5069566;28;20054;-65
2021/03/05 09:02:44;;;;;;;3.35;0.47;;;3.50;90.30;;;;;;5081583;27;20036;-65
2021/03/05 09:05:12;;;;;;;4.05;0.50;;;3.60;90.20;;;;;;5079488;27;20054;-65
2021/03/05 09:07:49;;;;;;;2.88;0.40;;;3.70;84.50;;;;;;5080146;27;20054;-65
2021/03/05 09:10:16;;;;;;;5.47;1.80;;;3.90;89.90;;;;;;5081260;27;20040;-66
2021/03/05 09:13:02;;;;;;;2.13;0.43;;;4.10;85.00;;;;;;5082088;27;20363;-66
2021/03/05 09:15:50;;;;;;;8.03;0.20;;;4.40;80.20;;;;;;5079263;27;20040;-65
2021/03/05 09:18:21;;;;;;;5.47;0.40;;;4.60;82.00;;;;;;5075971;27;20051;-66
2021/03/05 09:20:50;;;;;;;5.40;0.45;;;4.80;82.50;;;;;;5079516;27;20139;-66
2021/03/05 09:23:41;;;;;;;4.70;1.08;;;4.90;79.60;;;;;;5077616;27;20040;-66
2021/03/05 09:26:09;;;;;;;3.83;0.20;;;4.90;76.00;;;;;;5077889;27;20076;-66
2021/03/05 09:29:02;;;;;;;2.10;0.30;;;4.80;76.00;;;;;;5076817;27;20043;-66
2021/03/05 09:31:29;;;;;;;3.25;0.50;;;5.00;78.10;;;;;;5079990;28;20116;-66
2021/03/05 09:33:56;;;;;;;3.25;0.30;;;5.10;81.50;;;;;;5081832;28;20052;-66
2021/03/05 09:36:23;;;;;;;3.63;0.30;;;5.30;81.00;;;;;;5078930;28;20130;-66
2021/03/05 09:38:55;;;;;;;5.57;0.30;;;5.30;74.00;;;;;;5083139;28;20049;-65
2021/03/05 09:41:23;;;;;;;2.70;0.40;;;5.30;79.60;;;;;;5080582;27;20971;-66
2021/03/05 09:44:10;;;;;;;3.30;0.32;;;5.30;78.20;;;;;;5083514;28;20048;-66
2021/03/05 09:46:41;;;;;;;2.53;0.20;;;5.40;79.50;;;;;;5079685;28;20040;-66
2021/03/05 09:49:25;;;;;;;3.03;0.40;;;5.50;80.00;;;;;;5087481;28;20048;-66
2021/03/05 09:51:51;;;;;;;3.13;0.38;;;5.70;82.90;;;;;;5078007;28;20055;-66
2021/03/05 09:54:19;;;;;;;2.10;0.30;;;5.90;83.90;;;;;;5087698;28;20039;-66
2021/03/05 09:56:46;;;;;;;2.40;0.30;;;5.70;76.70;;;;;;5077646;28;20036;-66
2021/03/05 09:59:13;;;;;;;5.22;0.28;;;5.70;79.60;;;;;;5077604;28;20048;-66
2021/03/05 10:01:40;;;;;;;5.55;0.60;;;5.80;82.80;;;;;;5077990;28;20092;-66
2021/03/05 10:04:08;;;;;;;1.83;0.30;;;5.90;80.80;;;;;;5082580;28;20067;-66
2021/03/05 10:06:34;;;;;;;2.35;0.30;;;6.00;78.50;;;;;;5082086;28;20040;-66
2021/03/05 10:09:07;;;;;;;2.92;0.30;;;6.00;79.00;;;;;;5079603;28;20117;-66
2021/03/05 10:11:40;;;;;;;2.05;0.30;;;6.10;80.70;;;;;;5075270;28;20050;-65
2021/03/05 10:14:11;;;;;;;1.85;0.22;;;6.20;77.80;;;;;;5080668;28;20031;-66
2021/03/05 10:16:41;;;;;;;6.07;0.20;;;5.90;75.30;;;;;;5082112;28;20040;-65
2021/03/05 10:19:15;;;;;;;3.75;0.20;;;6.00;72.20;;;;;;5080204;28;20051;-66
2021/03/05 10:21:43;;;;;;;2.92;0.30;;;5.90;74.60;;;;;;5081832;28;20032;-65
2021/03/05 10:24:11;;;;;;;4.50;0.43;;;6.00;77.80;;;;;;5076099;28;20040;-66
2021/03/05 10:26:37;;;;;;;4.43;0.32;;;6.10;78.50;;;;;;5077006;28;20135;-65
2021/03/05 10:29:04;;;;;;;3.80;0.40;;;5.40;68.50;;;;;;5079351;28;20035;-66
2021/03/05 10:31:41;;;;;;;6.22;0.73;;;5.30;76.00;;;;;;5082410;28;20234;-65
2021/03/05 10:34:31;;;;;;;3.55;0.55;;;5.50;74.90;;;;;;5079758;27;20036;-66
2021/03/05 10:37:03;;;;;;;5.30;0.30;;;5.70;72.60;;;;;;5084036;27;20173;-65
2021/03/05 10:39:34;;;;;;;7.57;0.57;;;5.70;70.80;;;;;;5082149;27;20070;-66
2021/03/05 10:42:05;;;;;;;3.20;0.40;;;5.80;78.20;;;;;;5085397;27;20047;-66
2021/03/05 10:44:32;;;;;;;3.00;0.20;;;6.10;82.80;;;;;;5084612;27;20039;-65
2021/03/05 10:47:03;;;;;;;2.30;0.40;;;6.40;80.70;;;;;;5077368;27;20047;-66
2021/03/05 10:49:30;;;;;;;4.55;0.28;;;6.60;82.30;;;;;;5081674;27;20044;-65
2021/03/05 10:51:56;;;;;;;1.83;0.22;;;6.70;76.80;;;;;;5086176;27;20031;-66
2021/03/05 10:54:22;;;;;;;1.23;0.22;;;6.70;73.50;;;;;;5083595;27;20069;-66
2021/03/05 10:56:49;;;;;;;4.15;0.50;;;6.40;70.30;;;;;;5083114;27;20043;-66
2021/03/05 10:59:17;;;;;;;1.00;0.20;;;6.20;73.00;;;;;;5084436;27;20035;-66
2021/03/05 11:01:44;;;;;;;3.20;0.85;;;6.10;72.70;;;;;;5065723;27;20086;-66
2021/03/05 11:04:14;;;;;;;2.70;0.30;;;6.00;71.90;;;;;;5082100;27;20067;-65
2021/03/05 11:06:41;;;;;;;5.57;0.47;;;5.90;73.60;;;;;;5078858;27;20695;-65
2021/03/05 11:09:12;;;;;;;1.30;0.22;;;5.80;71.60;;;;;;5083734;27;20039;-65
2021/03/05 11:11:37;;;;;;;1.40;0.20;;;6.10;79.20;;;;;;5084197;27;20036;-65
2021/03/05 11:14:04;;;;;;;1.67;0.20;;;6.50;77.10;;;;;;5082038;27;20916;-65
2021/03/05 11:16:31;;;;;;;2.40;0.28;;;6.50;65.10;;;;;;5081696;27;22227;-65
2021/03/05 11:18:57;;;;;;;7.10;0.57;;;6.60;74.90;;;;;;5077831;27;20075;-66
2021/03/05 11:21:23;;;;;;;1.95;0.20;;;6.70;73.90;;;;;;5062786;27;20397;-66
2021/03/05 11:23:49;;;;;;;8.30;0.50;;;6.60;72.60;;;;;;5079491;27;20055;-66
2021/03/05 11:26:16;;;;;;;3.95;0.50;;;6.50;68.80;;;;;;5082110;27;20031;-65
2021/03/05 11:28:42;;;;;;;5.78;0.47;;;6.60;74.60;;;;;;5086140;27;20044;-65
2021/03/05 11:31:12;;;;;;;3.50;0.40;;;6.50;67.70;;;;;;5075101;27;20440;-66
2021/03/05 11:33:39;;;;;;;2.25;0.40;;;6.70;73.90;;;;;;5078716;27;20074;-66
2021/03/05 11:36:06;;;;;;;2.38;0.43;;;6.80;76.50;;;;;;5076547;27;20040;-65
2021/03/05 11:38:32;;;;;;;2.38;0.25;;;6.80;75.00;;;;;;5075050;27;20043;-65
2021/03/05 11:40:59;;;;;;;1.17;0.25;;;6.80;74.60;;;;;;5083549;27;20055;-66
2021/03/05 11:43:25;;;;;;;2.80;0.40;;;6.80;67.50;;;;;;5091806;27;20038;-66
2021/03/05 11:45:51;;;;;;;4.40;0.32;;;6.80;73.90;;;;;;5095001;27;20048;-66
2021/03/05 11:48:17;;;;;;;1.83;0.20;;;7.10;71.30;;;;;;5095668;27;20044;-66
2021/03/05 11:50:43;;;;;;;3.35;0.50;;;7.10;70.40;;;;;;5096349;27;20039;-65
2021/03/05 11:53:09;;;;;;;2.40;0.40;;;7.00;68.40;;;;;;5089556;27;20057;-65
2021/03/05 11:55:35;;;;;;;2.75;0.50;;;7.10;74.10;;;;;;5094967;27;20043;-66
2021/03/05 11:58:01;;;;;;;2.22;0.40;;;7.00;72.40;;;;;;5089125;27;20047;-65
2021/03/05 12:00:28;;;;;;;2.80;0.50;;;6.90;75.00;;;;;;5090964;27;21624;-66
2021/03/05 12:02:54;;;;;;;1.27;0.25;;;6.90;76.00;;;;;;5095568;27;20039;-66
2021/03/05 12:05:20;;;;;;;4.03;0.40;;;6.80;74.40;;;;;;5074857;27;20153;-66
2021/03/05 12:07:46;;;;;;;3.30;0.40;;;6.80;74.80;;;;;;5094139;27;20145;-66
2021/03/05 12:10:12;;;;;;;6.05;0.85;;;6.70;74.00;;;;;;5092076;27;20088;-65
2021/03/05 12:12:38;;;;;;;3.85;0.28;;;6.50;68.30;;;;;;5094456;27;20032;-66
2021/03/05 12:15:05;;;;;;;3.10;0.50;;;6.20;70.20;;;;;;5095999;27;21605;-65
2021/03/05 12:17:32;;;;;;;6.05;0.63;;;6.40;72.20;;;;;;5081317;27;20036;-66
2021/03/05 12:19:58;;;;;;;1.48;0.60;;;6.60;69.80;;;;;;5078026;27;20073;-66
2021/03/05 12:22:24;;;;;;;4.93;0.50;;;6.90;67.40;;;;;;5084084;27;20415;-66
2021/03/05 12:24:58;;;;;;;2.38;0.40;;;6.80;61.60;;;;;;5083082;27;20039;-66
2021/03/05 12:27:44;;;;;;;5.13;0.55;;;6.90;66.30;;;;;;5069669;27;20047;-66
2021/03/05 12:30:30;;;;;;;2.63;0.40;;;7.20;68.10;;;;;;5063626;28;20056;-66
2021/03/05 12:33:16;;;;;;;;;;;7.50;64.10;;;;;;5053339;27;20268;-66
2021/03/05 12:36:02;;;;;;;11.35;0.88;;;7.90;63.90;;;;;;5065814;27;21950;-66
2021/03/05 12:38:48;;;;;;;;;;;7.90;64.30;;;;;;5064674;27;20043;-66
2021/03/05 12:41:25;;;;;;;3.83;0.57;;;7.90;69.40;;;;;;5077718;27;20290;-66
2021/03/05 12:43:51;;;;;;;2.33;0.60;;;8.00;72.60;;;;;;5086713;27;20046;-66
2021/03/05 12:46:17;;;;;;;2.97;0.50;;;8.10;63.20;;;;;;5078519;27;20048;-66
2021/03/05 12:48:43;;;;;;;4.25;0.77;;;8.00;64.80;;;;;;5074824;27;20052;-66
2021/03/05 12:51:09;;;;;;;3.97;0.52;;;8.20;70.60;;;;;;5077107;27;20547;-66
2021/03/05 12:53:34;;;;;;;4.85;0.70;;;8.50;67.50;;;;;;5080788;27;20036;-66
2021/03/05 12:56:00;;;;;;;3.75;0.60;;;8.40;61.50;;;;;;5074942;27;20122;-66
2021/03/05 12:58:26;;;;;;;2.40;0.35;;;8.80;67.60;;;;;;5078056;27;20052;-66
2021/03/05 13:00:52;;;;;;;5.10;0.55;;;8.80;64.10;;;;;;5082363;27;20120;-66
2021/03/05 13:03:17;;;;;;;4.97;0.38;;;9.00;66.00;;;;;;5079058;27;20119;-66
2021/03/05 13:05:43;;;;;;;4.75;0.50;;;8.40;53.40;;;;;;5078773;27;20044;-66
2021/03/05 13:08:10;;;;;;;2.97;0.47;;;8.50;61.10;;;;;;5083196;27;20035;-66